createdAt,value
2022-11-15T00:00:11.049Z,100435.44
2022-11-15T00:02:37.835Z,100440.78
2022-11-15T00:05:04.896Z,100430.09
2022-11-15T00:07:54.567Z,100427.06
2022-11-15T00:10:18.613Z,100434.28
2022-11-15T00:12:46.766Z,100429.97
2022-11-15T00:15:13.551Z,100441.56
2022-11-15T00:17:40.284Z,100429.72
2022-11-15T00:20:08.371Z,100435.31
2022-11-15T00:22:35.281Z,100443.91
2022-11-15T00:25:02.030Z,100429.13
2022-11-15T00:27:28.778Z,100434.47
2022-11-15T00:29:56.895Z,100432.50
2022-11-15T00:32:23.657Z,100436.66
2022-11-15T00:34:50.407Z,100428.91
2022-11-15T00:37:17.263Z,100431.78
2022-11-15T00:39:44.073Z,100432.69
2022-11-15T00:42:10.836Z,100433.28
2022-11-15T00:44:37.610Z,100436.88
2022-11-15T00:47:05.821Z,100442.00
2022-11-15T00:49:32.625Z,100438.38
2022-11-15T00:51:59.372Z,100436.50
2022-11-15T00:54:26.390Z,100433.22
2022-11-15T00:56:53.164Z,100434.28
2022-11-15T00:59:19.916Z,100439.06
2022-11-15T01:01:46.658Z,100434.97
2022-11-15T01:04:14.909Z,100437.06
2022-11-15T01:06:41.684Z,100435.88
2022-11-15T01:09:08.518Z,100437.25
2022-11-15T01:11:35.351Z,100432.84
2022-11-15T01:14:02.097Z,100434.84
2022-11-15T01:16:28.907Z,100429.97
2022-11-15T01:18:55.661Z,100442.03
2022-11-15T01:21:23.872Z,100444.38
2022-11-15T01:23:54.971Z,100434.47
2022-11-15T01:26:22.758Z,100430.16
2022-11-15T01:28:49.560Z,100428.63
2022-11-15T01:31:18.465Z,100422.13
2022-11-15T01:33:45.844Z,100426.31
2022-11-15T01:36:14.944Z,100421.84
2022-11-15T01:38:43.373Z,100420.34
2022-11-15T01:41:17.275Z,100417.34
2022-11-15T01:43:43.994Z,100417.09
2022-11-15T01:46:27.177Z,100412.75
2022-11-15T01:48:56.515Z,100407.06
2022-11-15T01:51:26.971Z,100408.72
2022-11-15T01:53:59.949Z,100404.28
2022-11-15T01:56:31.521Z,100400.34
2022-11-15T01:59:01.974Z,100404.31
2022-11-15T02:01:29.795Z,100400.97
2022-11-15T02:04:00.817Z,100403.06
2022-11-15T02:06:27.784Z,100402.94
2022-11-15T02:08:57.394Z,100404.56
2022-11-15T02:11:24.172Z,100398.06
2022-11-15T02:13:51.299Z,100396.66
2022-11-15T02:16:26.802Z,100391.41
2022-11-15T02:18:59.218Z,100392.94
2022-11-15T02:21:34.449Z,100382.34
2022-11-15T02:24:37.452Z,100370.47
2022-11-15T02:27:51.847Z,100373.63
2022-11-15T02:30:23.808Z,100371.28
2022-11-15T02:32:56.070Z,100380.03
2022-11-15T02:35:36.347Z,100379.47
2022-11-15T02:38:09.545Z,100379.56
2022-11-15T02:40:43.803Z,100368.75
2022-11-15T02:43:31.817Z,100373.97
2022-11-15T02:46:08.162Z,100377.63
2022-11-15T02:48:35.987Z,100369.13
2022-11-15T02:51:03.314Z,100376.13
2022-11-15T02:53:30.412Z,100374.84
2022-11-15T02:55:59.036Z,100367.56
2022-11-15T02:59:01.971Z,100372.06
2022-11-15T03:01:40.620Z,100369.97
2022-11-15T03:04:24.331Z,100363.91
2022-11-15T03:06:54.653Z,100364.06
2022-11-15T03:09:29.969Z,100357.22
2022-11-15T03:12:01.096Z,100349.78
2022-11-15T03:14:34.086Z,100347.00
2022-11-15T03:17:08.833Z,100346.06
2022-11-15T03:19:41.579Z,100342.47
2022-11-15T03:22:12.560Z,100339.22
2022-11-15T03:24:40.161Z,100340.25
2022-11-15T03:27:09.070Z,100340.16
2022-11-15T03:29:40.072Z,100334.91
2022-11-15T03:32:14.934Z,100331.88
2022-11-15T03:34:46.308Z,100336.53
2022-11-15T03:37:15.809Z,100343.28
2022-11-15T03:39:43.525Z,100351.06
2022-11-15T03:42:19.898Z,100349.00
2022-11-15T03:44:53.180Z,100353.28
2022-11-15T03:47:25.472Z,100359.56
2022-11-15T03:49:56.862Z,100355.59
2022-11-15T03:52:23.976Z,100357.25
2022-11-15T03:54:53.490Z,100347.34
2022-11-15T03:57:20.518Z,100350.97
2022-11-15T03:59:47.279Z,100348.75
2022-11-15T04:02:14.651Z,100351.91
2022-11-15T04:04:42.798Z,100338.88
2022-11-15T04:07:09.704Z,100340.63
2022-11-15T04:09:56.954Z,100341.66
2022-11-15T04:12:32.522Z,100344.22
2022-11-15T04:15:10.310Z,100345.34
2022-11-15T04:17:39.363Z,100332.56
2022-11-15T04:20:29.256Z,100338.59
2022-11-15T04:23:16.449Z,100332.91
2022-11-15T04:25:44.298Z,100333.47
2022-11-15T04:28:11.173Z,100335.09
2022-11-15T04:30:38.360Z,100334.19
2022-11-15T04:33:05.428Z,100333.25
2022-11-15T04:35:34.322Z,100337.38
2022-11-15T04:38:02.156Z,100343.06
2022-11-15T04:40:28.937Z,100332.84
2022-11-15T04:43:03.266Z,100338.94
2022-11-15T04:45:30.750Z,100341.59
2022-11-15T04:47:57.580Z,100343.25
2022-11-15T04:50:24.455Z,100338.00
2022-11-15T04:52:54.776Z,100342.84
2022-11-15T04:55:21.696Z,100337.75
2022-11-15T04:57:48.444Z,100343.66
2022-11-15T05:00:17.733Z,100349.09
2022-11-15T05:03:03.574Z,100341.75
2022-11-15T05:05:30.411Z,100340.91
2022-11-15T05:07:58.559Z,100338.13
2022-11-15T05:10:25.384Z,100334.03
2022-11-15T05:12:52.332Z,100327.53
2022-11-15T05:15:19.204Z,100328.53
2022-11-15T05:17:46.002Z,100328.53
2022-11-15T05:20:13.306Z,100324.47
2022-11-15T05:22:40.769Z,100326.25
2022-11-15T05:25:09.706Z,100330.50
2022-11-15T05:27:36.510Z,100330.16
2022-11-15T05:30:03.542Z,100331.19
2022-11-15T05:32:30.560Z,100323.09
2022-11-15T05:34:57.661Z,100325.88
2022-11-15T05:37:24.484Z,100316.91
2022-11-15T05:39:51.280Z,100310.91
2022-11-15T05:42:20.648Z,100300.88
2022-11-15T05:44:50.275Z,100303.91
2022-11-15T05:47:20.460Z,100304.84
2022-11-15T05:49:49.447Z,100303.69
2022-11-15T05:52:20.264Z,100312.31
2022-11-15T05:54:47.445Z,100314.81
2022-11-15T05:57:14.283Z,100316.66
2022-11-15T05:59:44.526Z,100321.41
2022-11-15T06:02:14.784Z,100309.47
2022-11-15T06:04:41.765Z,100315.16
2022-11-15T06:07:08.718Z,100310.53
2022-11-15T06:09:35.475Z,100310.91
2022-11-15T06:12:02.265Z,100304.34
2022-11-15T06:14:29.053Z,100310.53
2022-11-15T06:16:57.220Z,100317.69
2022-11-15T06:19:24.035Z,100321.19
2022-11-15T06:21:50.874Z,100302.38
2022-11-15T06:24:17.716Z,100308.56
2022-11-15T06:26:44.651Z,100301.16
2022-11-15T06:29:11.473Z,100300.78
2022-11-15T06:31:38.418Z,100299.78
2022-11-15T06:34:06.659Z,100293.88
2022-11-15T06:36:35.527Z,100292.69
2022-11-15T06:39:02.741Z,100295.38
2022-11-15T06:41:29.560Z,100292.34
2022-11-15T06:43:57.895Z,100283.41
2022-11-15T06:46:24.735Z,100291.63
2022-11-15T06:48:51.815Z,100287.09
2022-11-15T06:51:20.045Z,100293.13
2022-11-15T06:53:47.002Z,100288.22
2022-11-15T06:56:13.859Z,100287.31
2022-11-15T06:58:40.623Z,100283.78
2022-11-15T07:01:09.734Z,100285.53
2022-11-15T07:03:37.319Z,100285.28
2022-11-15T07:06:07.407Z,100284.47
2022-11-15T07:08:36.764Z,100281.47
2022-11-15T07:11:05.505Z,100272.03
2022-11-15T07:13:37.066Z,100282.50
2022-11-15T07:16:04.795Z,100271.84
2022-11-15T07:18:31.710Z,100262.06
2022-11-15T07:21:01.876Z,100257.22
2022-11-15T07:23:28.872Z,100254.56
2022-11-15T07:25:59.427Z,100255.84
2022-11-15T07:28:26.843Z,100252.94
2022-11-15T07:30:54.204Z,100248.44
2022-11-15T07:33:21.312Z,100242.66
2022-11-15T07:35:51.216Z,100241.47
2022-11-15T07:38:21.228Z,100240.78
2022-11-15T07:40:56.274Z,100233.94
2022-11-15T07:43:24.467Z,100239.50
2022-11-15T07:45:56.025Z,100235.78
2022-11-15T07:48:26.097Z,100230.72
2022-11-15T07:50:59.043Z,100234.91
2022-11-15T07:53:25.827Z,100244.69
2022-11-15T07:55:54.507Z,100241.09
2022-11-15T07:58:21.299Z,100249.56
2022-11-15T08:00:49.465Z,100249.63
2022-11-15T08:03:17.511Z,100235.19
2022-11-15T08:05:50.820Z,100233.09
2022-11-15T08:08:17.726Z,100223.00
2022-11-15T08:10:44.703Z,100237.75
2022-11-15T08:13:13.111Z,100236.34
2022-11-15T08:15:39.945Z,100233.91
2022-11-15T08:18:12.899Z,100241.13
2022-11-15T08:20:40.115Z,100241.13
2022-11-15T08:23:07.377Z,100238.56
2022-11-15T08:25:35.824Z,100237.53
2022-11-15T08:28:04.823Z,100242.63
2022-11-15T08:30:35.499Z,100237.41
2022-11-15T08:33:02.321Z,100232.88
2022-11-15T08:35:30.476Z,100221.66
2022-11-15T08:37:57.241Z,100218.75
2022-11-15T08:40:24.993Z,100225.41
2022-11-15T08:42:51.813Z,100214.66
2022-11-15T08:45:18.638Z,100210.56
2022-11-15T08:47:49.709Z,100205.53
2022-11-15T08:50:19.715Z,100207.59
2022-11-15T08:52:49.293Z,100203.59
2022-11-15T08:55:17.657Z,100193.97
2022-11-15T08:57:44.867Z,100187.47
2022-11-15T09:00:13.224Z,100183.97
2022-11-15T09:02:40.502Z,100181.72
2022-11-15T09:05:08.874Z,100188.84
2022-11-15T09:07:35.763Z,100188.38
2022-11-15T09:10:05.077Z,100183.25
2022-11-15T09:12:32.006Z,100176.78
2022-11-15T09:14:59.196Z,100182.38
2022-11-15T09:17:26.020Z,100176.69
2022-11-15T09:19:52.845Z,100173.81
2022-11-15T09:22:19.832Z,100181.72
2022-11-15T09:24:46.672Z,100167.59
2022-11-15T09:27:14.896Z,100163.81
2022-11-15T09:29:41.722Z,100160.25
2022-11-15T09:32:08.499Z,100164.59
2022-11-15T09:34:35.270Z,100150.16
2022-11-15T09:37:02.066Z,100147.91
2022-11-15T09:39:28.821Z,100160.91
2022-11-15T09:42:30.871Z,100142.03
2022-11-15T09:45:09.112Z,100137.44
2022-11-15T09:48:04.344Z,100144.94
2022-11-15T09:50:37.472Z,100144.81
2022-11-15T09:53:04.683Z,100141.38
2022-11-15T09:55:41.355Z,100142.28
2022-11-15T09:58:17.973Z,100139.50
2022-11-15T10:00:49.771Z,100124.38
2022-11-15T10:03:19.284Z,100105.47
2022-11-15T10:05:48.375Z,100119.94
2022-11-15T10:08:36.892Z,100108.28
2022-11-15T10:13:58.135Z,100104.69
2022-11-15T10:16:55.302Z,100095.69
2022-11-15T10:19:27.291Z,100091.75
2022-11-15T10:22:06.814Z,100088.13
2022-11-15T10:24:38.162Z,100081.38
2022-11-15T10:27:11.645Z,100077.78
2022-11-15T10:29:44.197Z,100067.22
2022-11-15T10:32:12.323Z,100066.88
2022-11-15T10:34:39.070Z,100070.31
2022-11-15T10:37:06.052Z,100078.28
2022-11-15T10:39:34.627Z,100085.09
2022-11-15T10:42:18.064Z,100059.59
2022-11-15T10:44:46.882Z,100064.56
2022-11-15T10:47:27.144Z,100058.66
2022-11-15T10:49:59.036Z,100044.34
2022-11-15T10:52:26.320Z,100045.53
2022-11-15T10:54:57.567Z,100036.88
2022-11-15T10:57:27.324Z,100035.75
2022-11-15T10:59:57.700Z,100017.78
2022-11-15T11:02:36.699Z,100028.03
2022-11-15T11:05:05.802Z,100017.53
2022-11-15T11:07:34.541Z,100014.63
2022-11-15T11:10:13.333Z,100011.94
2022-11-15T11:12:49.768Z,99995.97
2022-11-15T11:15:18.592Z,99981.59
2022-11-15T11:17:58.384Z,99987.63
2022-11-15T11:20:31.411Z,99981.34
2022-11-15T11:23:12.815Z,99976.78
2022-11-15T11:25:49.245Z,99978.69
2022-11-15T11:28:43.265Z,99963.31
2022-11-15T11:31:27.016Z,99960.56
2022-11-15T11:34:04.960Z,99945.94
2022-11-15T11:36:40.874Z,99941.75
2022-11-15T11:39:22.062Z,99931.19
2022-11-15T11:42:00.506Z,99932.44
2022-11-15T11:44:49.117Z,99928.81
2022-11-15T11:47:24.130Z,99928.41
2022-11-15T11:49:53.735Z,99931.72
2022-11-15T11:52:28.133Z,99926.06
2022-11-15T11:55:05.981Z,99915.91
2022-11-15T11:57:40.982Z,99911.75
2022-11-15T12:00:18.073Z,99916.63
2022-11-15T12:02:50.705Z,99903.91
2022-11-15T12:05:24.040Z,99905.78
2022-11-15T12:07:55.728Z,99905.41
2022-11-15T12:10:25.010Z,99892.84
2022-11-15T12:13:00.086Z,99891.06
2022-11-15T12:15:31.439Z,99884.03
2022-11-15T12:18:02.356Z,99876.31
2022-11-15T12:20:36.060Z,99876.22
2022-11-15T12:23:08.301Z,99867.50
2022-11-15T12:25:42.610Z,99860.41
2022-11-15T12:28:17.709Z,99857.31
2022-11-15T12:30:51.398Z,99846.91
2022-11-15T12:33:41.071Z,99838.38
2022-11-15T12:36:12.701Z,99833.09
2022-11-15T12:38:56.073Z,99830.63
2022-11-15T12:41:24.135Z,99824.56
2022-11-15T12:43:51.300Z,99825.59
2022-11-15T12:46:25.547Z,99822.56
2022-11-15T12:48:56.807Z,99810.88
2022-11-15T12:52:05.330Z,99813.34
2022-11-15T12:54:52.531Z,99809.25
2022-11-15T12:57:31.967Z,99792.31
2022-11-15T13:00:02.703Z,99784.91
2022-11-15T13:02:31.727Z,99785.72
2022-11-15T13:05:37.101Z,99772.50
2022-11-15T13:08:08.279Z,99773.53
2022-11-15T13:10:35.672Z,99767.03
2022-11-15T13:13:04.456Z,99763.72
2022-11-15T13:15:42.558Z,99761.81
2022-11-15T13:18:43.125Z,99750.94
2022-11-15T13:21:41.359Z,99742.03
2022-11-15T13:24:18.031Z,99741.97
2022-11-15T13:26:44.968Z,99735.38
2022-11-15T13:29:17.679Z,99732.13
2022-11-15T13:31:45.947Z,99724.44
2022-11-15T13:34:49.858Z,99722.25
2022-11-15T13:37:28.658Z,99718.44
2022-11-15T13:40:16.990Z,99714.00
2022-11-15T13:42:45.841Z,99712.00
2022-11-15T13:45:16.498Z,99711.19
2022-11-15T13:47:43.613Z,99702.44
2022-11-15T13:50:13.121Z,99704.38
2022-11-15T13:52:44.220Z,99697.59
2022-11-15T13:55:15.501Z,99690.41
2022-11-15T13:57:45.854Z,99690.22
2022-11-15T14:00:28.300Z,99693.44
2022-11-15T14:02:56.548Z,99686.94
2022-11-15T14:05:25.293Z,99678.41
2022-11-15T14:07:56.886Z,99686.09
2022-11-15T14:10:29.525Z,99681.66
2022-11-15T14:12:56.394Z,99684.44
2022-11-15T14:15:30.214Z,99684.38
2022-11-15T14:17:56.832Z,99686.66
2022-11-15T14:20:33.693Z,99692.03
2022-11-15T14:23:02.025Z,99688.44
2022-11-15T14:25:31.506Z,99683.88
2022-11-15T14:28:17.332Z,99682.56
2022-11-15T14:30:48.099Z,99675.72
2022-11-15T14:33:25.176Z,99677.34
2022-11-15T14:35:52.956Z,99668.06
2022-11-15T14:38:20.181Z,99662.41
2022-11-15T14:40:48.835Z,99668.00
2022-11-15T14:43:15.708Z,99662.81
2022-11-15T14:45:42.558Z,99664.25
2022-11-15T14:48:09.935Z,99655.03
2022-11-15T14:50:37.311Z,99660.34
2022-11-15T14:53:05.030Z,99648.69
2022-11-15T14:55:36.030Z,99644.34
2022-11-15T14:58:05.447Z,99643.09
2022-11-15T15:00:35.178Z,99643.59
2022-11-15T15:03:03.944Z,99633.56
2022-11-15T15:05:33.887Z,99634.34
2022-11-15T15:08:01.167Z,99627.16
2022-11-15T15:10:40.228Z,99628.94
2022-11-15T15:13:17.747Z,99617.78
2022-11-15T15:15:44.961Z,99625.88
2022-11-15T15:18:12.431Z,99616.38
2022-11-15T15:20:41.181Z,99616.78
2022-11-15T15:23:16.531Z,99619.84
2022-11-15T15:25:44.666Z,99613.94
2022-11-15T15:28:13.763Z,99609.69
2022-11-15T15:30:40.598Z,99611.72
2022-11-15T15:33:07.561Z,99609.34
2022-11-15T15:35:36.129Z,99602.03
2022-11-15T15:38:04.627Z,99603.75
2022-11-15T15:40:33.637Z,99606.56
2022-11-15T15:43:00.856Z,99608.56
2022-11-15T15:45:30.491Z,99602.22
2022-11-15T15:47:57.331Z,99596.66
2022-11-15T15:50:25.853Z,99587.16
2022-11-15T15:52:54.124Z,99591.94
2022-11-15T15:55:21.137Z,99590.22
2022-11-15T15:57:48.202Z,99588.66
2022-11-15T16:00:15.840Z,99580.66
2022-11-15T16:02:44.575Z,99581.53
2022-11-15T16:05:12.646Z,99581.78
2022-11-15T16:07:40.725Z,99578.00
2022-11-15T16:10:19.232Z,99573.25
2022-11-15T16:18:27.799Z,99569.69
2022-11-15T16:20:57.756Z,99573.72
2022-11-15T16:23:25.643Z,99570.19
2022-11-15T16:25:56.818Z,99573.78
2022-11-15T16:28:29.923Z,99571.00
2022-11-15T16:31:02.188Z,99564.47
2022-11-15T16:33:31.049Z,99560.50
2022-11-15T16:35:58.682Z,99570.63
2022-11-15T16:38:25.648Z,99549.81
2022-11-15T16:40:54.170Z,99557.72
2022-11-15T16:44:11.140Z,99562.72
2022-11-15T16:46:38.752Z,99558.31
2022-11-15T16:49:13.252Z,99569.81
2022-11-15T16:51:41.575Z,99557.91
2022-11-15T16:54:08.675Z,99559.81
2022-11-15T16:56:35.496Z,99562.78
2022-11-15T16:59:02.723Z,99562.28
2022-11-15T17:01:32.094Z,99552.78
2022-11-15T17:03:59.514Z,99553.06
2022-11-15T17:06:28.497Z,99560.41
2022-11-15T17:08:56.648Z,99570.06
2022-11-15T17:11:23.540Z,99569.59
2022-11-15T17:13:50.509Z,99560.91
2022-11-15T17:16:18.479Z,99559.69
2022-11-15T17:18:45.759Z,99551.63
2022-11-15T17:21:15.008Z,99553.06
2022-11-15T17:23:43.669Z,99543.63
2022-11-15T17:26:28.976Z,99548.00
2022-11-15T17:29:01.528Z,99532.03
2022-11-15T17:31:30.842Z,99527.28
2022-11-15T17:33:57.707Z,99539.72
2022-11-15T17:36:24.508Z,99537.53
2022-11-15T17:38:56.689Z,99526.03
2022-11-15T17:41:26.474Z,99536.78
2022-11-15T17:43:53.520Z,99512.03
2022-11-15T17:46:21.598Z,99515.13
2022-11-15T17:48:48.828Z,99508.56
2022-11-15T17:51:17.787Z,99516.94
2022-11-15T17:53:46.116Z,99503.81
2022-11-15T17:56:15.813Z,99511.81
2022-11-15T17:58:47.196Z,99516.31
2022-11-15T18:01:18.229Z,99516.69
2022-11-15T18:03:45.358Z,99513.38
2022-11-15T18:06:12.878Z,99528.19
2022-11-15T18:08:41.544Z,99524.72
2022-11-15T18:11:10.549Z,99513.81
2022-11-15T18:13:40.918Z,99502.16
2022-11-15T18:16:11.160Z,99516.66
2022-11-15T18:18:38.006Z,99521.50
2022-11-15T18:21:06.579Z,99520.00
2022-11-15T18:23:34.838Z,99524.06
2022-11-15T18:26:03.248Z,99524.03
2022-11-15T18:28:32.430Z,99525.31
2022-11-15T18:31:01.994Z,99524.19
2022-11-15T18:33:30.049Z,99513.38
2022-11-15T18:36:02.878Z,99497.81
2022-11-15T18:38:31.071Z,99502.19
2022-11-15T18:40:59.610Z,99497.44
2022-11-15T18:43:26.638Z,99497.03
2022-11-15T18:45:53.478Z,99502.28
2022-11-15T18:48:22.414Z,99499.09
2022-11-15T18:50:52.143Z,99491.94
2022-11-15T18:53:20.781Z,99494.34
2022-11-15T18:55:47.567Z,99481.13
2022-11-15T18:58:14.337Z,99490.69
2022-11-15T19:00:41.693Z,99484.75
2022-11-15T19:03:08.563Z,99498.00
2022-11-15T19:05:37.055Z,99484.44
2022-11-15T19:08:03.986Z,99490.59
2022-11-15T19:10:30.784Z,99484.91
2022-11-15T19:12:57.540Z,99482.09
2022-11-15T19:15:24.387Z,99474.56
2022-11-15T19:17:51.224Z,99474.13
2022-11-15T19:20:18.141Z,99479.31
2022-11-15T19:22:46.375Z,99468.13
2022-11-15T19:25:13.310Z,99480.97
2022-11-15T19:27:40.707Z,99482.56
2022-11-15T19:30:09.130Z,99473.78
2022-11-15T19:32:35.937Z,99469.31
2022-11-15T19:35:02.784Z,99475.34
2022-11-15T19:37:29.568Z,99473.81
2022-11-15T19:39:57.813Z,99472.59
2022-11-15T19:42:24.679Z,99475.38
2022-11-15T19:44:51.685Z,99453.41
2022-11-15T19:47:18.452Z,99457.00
2022-11-15T19:49:46.636Z,99450.63
2022-11-15T19:52:13.464Z,99445.38
2022-11-15T19:54:40.399Z,99445.34
2022-11-15T19:57:08.583Z,99444.09
2022-11-15T19:59:35.437Z,99434.38
2022-11-15T20:02:02.201Z,99450.47
2022-11-15T20:04:29.667Z,99448.50
2022-11-15T20:06:56.523Z,99456.91
2022-11-15T20:09:25.886Z,99450.81
2022-11-15T20:11:52.782Z,99456.91
2022-11-15T20:14:21.001Z,99456.91
2022-11-15T20:16:52.975Z,99451.72
2022-11-15T20:19:22.163Z,99453.00
2022-11-15T20:21:49.233Z,99455.00
2022-11-15T20:24:16.124Z,99452.22
2022-11-15T20:26:43.794Z,99453.91
2022-11-15T20:29:11.160Z,99465.13
2022-11-15T20:31:39.425Z,99462.72
2022-11-15T20:34:06.488Z,99454.25
2022-11-15T20:36:33.396Z,99456.25
2022-11-15T20:39:00.654Z,99469.47
2022-11-15T20:41:28.384Z,99457.06
2022-11-15T20:43:55.297Z,99449.47
2022-11-15T20:46:22.382Z,99443.06
2022-11-15T20:48:50.543Z,99441.09
2022-11-15T20:51:19.122Z,99454.31
2022-11-15T20:53:46.960Z,99452.34
2022-11-15T20:56:16.298Z,99447.16
2022-11-15T20:58:45.672Z,99444.78
2022-11-15T21:01:15.227Z,99442.00
2022-11-15T21:03:42.418Z,99447.19
2022-11-15T21:06:10.828Z,99445.22
2022-11-15T21:08:56.550Z,99445.19
2022-11-15T21:11:43.684Z,99449.97
2022-11-15T21:14:10.639Z,99443.94
2022-11-15T21:16:37.508Z,99443.94
2022-11-15T21:19:05.916Z,99450.06
2022-11-15T21:21:34.117Z,99454.44
2022-11-15T21:24:02.755Z,99453.22
2022-11-15T21:26:29.592Z,99452.44
2022-11-15T21:28:56.418Z,99443.94
2022-11-15T21:31:23.307Z,99429.94
2022-11-15T21:33:50.240Z,99428.75
2022-11-15T21:36:17.052Z,99429.22
2022-11-15T21:38:45.241Z,99422.47
2022-11-15T21:41:12.112Z,99430.00
2022-11-15T21:43:38.958Z,99432.38
2022-11-15T21:46:07.071Z,99438.41
2022-11-15T21:48:35.896Z,99439.22
2022-11-15T21:51:05.084Z,99432.00
2022-11-15T21:53:32.718Z,99439.63
2022-11-15T21:56:02.209Z,99439.13
2022-11-15T21:58:30.054Z,99437.19
2022-11-15T22:01:15.635Z,99436.41
2022-11-15T22:03:43.293Z,99446.81
2022-11-15T22:06:16.007Z,99457.22
2022-11-15T22:08:44.286Z,99458.72
2022-11-15T22:11:13.425Z,99453.66
2022-11-15T22:13:40.515Z,99453.28
2022-11-15T22:16:09.164Z,99460.81
2022-11-15T22:18:36.926Z,99462.38
2022-11-15T22:21:06.316Z,99443.94
2022-11-15T22:23:34.103Z,99439.91
2022-11-15T22:26:01.678Z,99447.09
2022-11-15T22:28:30.569Z,99436.22
2022-11-15T22:30:58.681Z,99434.97
2022-11-15T22:33:27.151Z,99433.38
2022-11-15T22:35:54.582Z,99449.75
2022-11-15T22:38:22.055Z,99445.31
2022-11-15T22:40:49.317Z,99443.97
2022-11-15T22:43:18.350Z,99431.66
2022-11-15T22:45:53.076Z,99425.66
2022-11-15T22:48:20.498Z,99440.50
2022-11-15T22:50:47.446Z,99431.72
2022-11-15T22:53:14.521Z,99440.50
2022-11-15T22:55:42.263Z,99459.25
2022-11-15T22:58:09.476Z,99455.66
2022-11-15T23:00:36.747Z,99445.97
2022-11-15T23:03:05.087Z,99444.78
2022-11-15T23:05:32.157Z,99457.97
2022-11-15T23:07:59.060Z,99463.91
2022-11-15T23:10:44.280Z,99458.66
2022-11-15T23:13:16.898Z,99470.66
2022-11-15T23:16:03.623Z,99472.22
2022-11-15T23:18:35.269Z,99460.22
2022-11-15T23:21:08.910Z,99464.63
2022-11-15T23:23:36.132Z,99467.34
2022-11-15T23:26:02.907Z,99474.94
2022-11-15T23:28:29.836Z,99468.09
2022-11-15T23:31:21.411Z,99458.78
2022-11-15T23:33:58.821Z,99472.75
2022-11-15T23:36:26.942Z,99466.34
2022-11-15T23:38:54.098Z,99467.09
2022-11-15T23:41:21.710Z,99459.91
2022-11-15T23:43:48.568Z,99465.50
2022-11-15T23:46:15.976Z,99466.72
2022-11-15T23:48:42.868Z,99482.59
2022-11-15T23:51:11.036Z,99484.53
2022-11-15T23:53:38.106Z,99485.31
2022-11-15T23:56:07.462Z,99492.13
2022-11-15T23:58:34.829Z,99485.31
